createdAt,value
2023-12-14T00:00:15.497Z,98.09
2023-12-14T00:01:15.460Z,97.57
2023-12-14T00:02:15.508Z,98.19
2023-12-14T00:03:15.395Z,98.19
2023-12-14T00:04:15.461Z,97.78
2023-12-14T00:05:15.411Z,97.57
2023-12-14T00:06:15.489Z,98.19
2023-12-14T00:07:15.409Z,97.67
2023-12-14T00:08:15.420Z,97.57
2023-12-14T00:09:15.357Z,97.88
2023-12-14T00:10:15.341Z,98.19
2023-12-14T00:11:15.358Z,98.30
2023-12-14T00:12:15.333Z,98.50
2023-12-14T00:13:15.323Z,98.19
2023-12-14T00:14:15.358Z,97.99
2023-12-14T00:15:15.284Z,97.78
2023-12-14T00:16:15.268Z,97.53
2023-12-14T00:17:15.380Z,97.16
2023-12-14T00:18:15.458Z,97.36
2023-12-14T00:19:15.228Z,97.36
2023-12-14T00:20:15.296Z,97.47
2023-12-14T00:21:15.203Z,97.36
2023-12-14T00:22:15.213Z,97.57
2023-12-14T00:23:15.226Z,97.57
2023-12-14T00:24:15.184Z,97.88
2023-12-14T00:25:15.276Z,98.09
2023-12-14T00:26:15.228Z,98.40
2023-12-14T00:27:15.181Z,97.99
2023-12-14T00:28:15.185Z,97.63
2023-12-14T00:29:15.191Z,97.22
2023-12-14T00:30:15.226Z,96.70
2023-12-14T00:31:15.114Z,97.11
2023-12-14T00:32:15.186Z,97.22
2023-12-14T00:33:15.171Z,97.53
2023-12-14T00:34:15.082Z,96.70
2023-12-14T00:35:15.127Z,96.59
2023-12-14T00:36:15.060Z,96.49
2023-12-14T00:37:15.120Z,96.49
2023-12-14T00:38:15.088Z,96.19
2023-12-14T00:39:15.063Z,96.12
2023-12-14T00:40:15.066Z,96.75
2023-12-14T00:41:15.091Z,97.16
2023-12-14T00:42:15.072Z,97.41
2023-12-14T00:43:15.061Z,97.41
2023-12-14T00:44:15.055Z,97.72
2023-12-14T00:45:14.965Z,97.10
2023-12-14T00:46:14.990Z,97.66
2023-12-14T00:47:15.068Z,98.39
2023-12-14T00:48:15.068Z,98.85
2023-12-14T00:49:14.959Z,99.47
2023-12-14T00:50:15.001Z,99.05
2023-12-14T00:51:15.031Z,99.11
2023-12-14T00:52:14.923Z,98.60
2023-12-14T00:53:15.020Z,98.70
2023-12-14T00:54:14.879Z,98.49
2023-12-14T00:55:14.871Z,98.18
2023-12-14T00:56:14.938Z,98.08
2023-12-14T00:57:14.887Z,98.08
2023-12-14T00:58:14.904Z,97.97
2023-12-14T00:59:14.895Z,98.08
2023-12-14T01:00:14.826Z,97.35
2023-12-14T01:01:14.881Z,97.29
2023-12-14T01:02:14.944Z,98.22
2023-12-14T01:03:14.875Z,99.00
2023-12-14T01:04:14.815Z,99.16
2023-12-14T01:05:14.810Z,99.21
2023-12-14T01:06:14.818Z,99.47
2023-12-14T01:07:14.759Z,99.05
2023-12-14T01:08:14.770Z,98.74
2023-12-14T01:09:14.754Z,98.74
2023-12-14T01:10:14.755Z,98.12
2023-12-14T01:11:14.776Z,98.22
2023-12-14T01:12:14.729Z,98.85
2023-12-14T01:13:14.696Z,98.85
2023-12-14T01:14:14.724Z,99.16
2023-12-14T01:15:14.672Z,98.85
2023-12-14T01:16:14.699Z,97.91
2023-12-14T01:17:14.751Z,97.91
2023-12-14T01:18:14.717Z,97.81
2023-12-14T01:19:14.656Z,98.43
2023-12-14T01:20:14.675Z,97.91
2023-12-14T01:21:14.612Z,97.91
2023-12-14T01:22:16.302Z,98.22
2023-12-14T01:23:14.644Z,98.22
2023-12-14T01:24:14.604Z,97.44
2023-12-14T01:25:14.575Z,98.38
2023-12-14T01:26:14.599Z,98.17
2023-12-14T01:27:14.563Z,98.17
2023-12-14T01:28:14.532Z,98.58
2023-12-14T01:29:14.576Z,98.17
2023-12-14T01:30:14.553Z,98.27
2023-12-14T01:31:14.502Z,98.69
2023-12-14T01:32:14.539Z,98.48
2023-12-14T01:33:14.632Z,98.79
2023-12-14T01:34:14.501Z,99.31
2023-12-14T01:35:14.516Z,99.52
2023-12-14T01:36:14.471Z,99.00
2023-12-14T01:37:14.472Z,98.69
2023-12-14T01:38:14.464Z,98.74
2023-12-14T01:39:14.434Z,98.54
2023-12-14T01:40:14.433Z,98.12
2023-12-14T01:41:14.435Z,98.12
2023-12-14T01:42:14.442Z,98.33
2023-12-14T01:43:14.393Z,98.33
2023-12-14T01:44:14.465Z,97.91
2023-12-14T01:45:14.375Z,98.12
2023-12-14T01:46:14.400Z,97.29
2023-12-14T01:47:14.432Z,97.39
2023-12-14T01:48:14.434Z,97.91
2023-12-14T01:49:14.399Z,97.91
2023-12-14T01:50:14.536Z,97.91
2023-12-14T01:51:14.321Z,98.07
2023-12-14T01:52:14.338Z,97.81
2023-12-14T01:53:14.463Z,97.86
2023-12-14T01:54:14.305Z,97.75
2023-12-14T01:55:14.288Z,97.71
2023-12-14T01:56:14.328Z,97.75
2023-12-14T01:57:14.269Z,97.71
2023-12-14T01:58:14.268Z,97.81
2023-12-14T01:59:14.268Z,98.12
2023-12-14T02:00:14.254Z,98.12
2023-12-14T02:01:14.243Z,97.50
2023-12-14T02:02:14.256Z,97.39
2023-12-14T02:03:14.214Z,97.39
2023-12-14T02:04:14.248Z,97.60
2023-12-14T02:05:14.285Z,97.71
2023-12-14T02:06:14.234Z,97.50
2023-12-14T02:07:14.167Z,97.09
2023-12-14T02:08:14.203Z,97.09
2023-12-14T02:09:14.157Z,97.19
2023-12-14T02:10:14.192Z,97.29
2023-12-14T02:11:14.174Z,96.67
2023-12-14T02:12:14.131Z,96.67
2023-12-14T02:13:14.130Z,96.67
2023-12-14T02:14:14.215Z,96.78
2023-12-14T02:15:14.143Z,96.57
2023-12-14T02:16:14.092Z,96.88
2023-12-14T02:17:14.201Z,96.67
2023-12-14T02:18:14.210Z,97.09
2023-12-14T02:19:14.072Z,97.60
2023-12-14T02:20:14.172Z,97.19
2023-12-14T02:21:14.057Z,96.47
2023-12-14T02:22:14.052Z,96.41
2023-12-14T02:23:14.111Z,97.03
2023-12-14T02:24:14.030Z,97.24
2023-12-14T02:25:13.999Z,97.13
2023-12-14T02:26:14.042Z,97.75
2023-12-14T02:27:13.974Z,98.07
2023-12-14T02:28:13.990Z,97.65
2023-12-14T02:29:13.977Z,97.75
2023-12-14T02:30:14.019Z,98.17
2023-12-14T02:31:13.953Z,97.34
2023-12-14T02:32:13.981Z,97.44
2023-12-14T02:33:13.970Z,97.24
2023-12-14T02:34:14.025Z,97.86
2023-12-14T02:35:13.973Z,97.65
2023-12-14T02:36:13.932Z,97.55
2023-12-14T02:37:13.893Z,97.86
2023-12-14T02:38:13.986Z,97.86
2023-12-14T02:39:13.868Z,97.55
2023-12-14T02:40:13.872Z,97.65
2023-12-14T02:41:13.901Z,98.07
2023-12-14T02:42:13.874Z,97.65
2023-12-14T02:43:13.840Z,97.55
2023-12-14T02:44:13.872Z,98.07
2023-12-14T02:45:13.803Z,98.38
2023-12-14T02:46:13.839Z,97.96
2023-12-14T02:47:13.828Z,98.27
2023-12-14T02:48:13.971Z,98.17
2023-12-14T02:49:13.862Z,98.38
2023-12-14T02:50:14.200Z,98.58
2023-12-14T02:51:13.801Z,98.79
2023-12-14T02:52:13.777Z,98.48
2023-12-14T02:53:13.865Z,97.96
2023-12-14T02:54:13.735Z,97.96
2023-12-14T02:55:13.716Z,97.44
2023-12-14T02:56:13.881Z,97.65
2023-12-14T02:57:13.707Z,97.65
2023-12-14T02:58:13.713Z,97.96
2023-12-14T02:59:13.730Z,98.17
2023-12-14T03:00:13.694Z,98.48
2023-12-14T03:01:13.705Z,98.17
2023-12-14T03:02:13.724Z,98.38
2023-12-14T03:03:13.725Z,97.75
2023-12-14T03:04:13.647Z,97.96
2023-12-14T03:05:13.729Z,98.38
2023-12-14T03:06:13.755Z,98.79
2023-12-14T03:07:13.604Z,98.54
2023-12-14T03:08:13.691Z,98.54
2023-12-14T03:09:13.582Z,97.71
2023-12-14T03:10:13.585Z,97.60
2023-12-14T03:11:13.591Z,97.50
2023-12-14T03:12:13.579Z,97.19
2023-12-14T03:13:13.551Z,96.98
2023-12-14T03:14:13.621Z,97.39
2023-12-14T03:15:13.563Z,96.67
2023-12-14T03:16:13.520Z,96.88
2023-12-14T03:17:13.622Z,97.29
2023-12-14T03:18:13.850Z,97.09
2023-12-14T03:19:13.554Z,97.50
2023-12-14T03:20:13.587Z,96.98
2023-12-14T03:21:13.481Z,97.19
2023-12-14T03:22:13.475Z,96.57
2023-12-14T03:23:13.559Z,96.67
2023-12-14T03:24:13.455Z,96.67
2023-12-14T03:25:13.428Z,96.78
2023-12-14T03:26:13.489Z,96.88
2023-12-14T03:27:13.416Z,96.98
2023-12-14T03:28:13.422Z,97.39
2023-12-14T03:29:13.457Z,97.29
2023-12-14T03:30:13.431Z,97.60
2023-12-14T03:31:13.381Z,97.39
2023-12-14T03:32:13.462Z,96.98
2023-12-14T03:33:13.489Z,96.98
2023-12-14T03:34:13.402Z,96.98
2023-12-14T03:35:13.449Z,97.09
2023-12-14T03:36:13.337Z,96.15
2023-12-14T03:37:13.319Z,96.47
2023-12-14T03:38:13.379Z,96.36
2023-12-14T03:39:13.311Z,96.78
2023-12-14T03:40:13.292Z,97.29
2023-12-14T03:41:13.337Z,97.29
2023-12-14T03:42:13.305Z,97.60
2023-12-14T03:43:13.277Z,97.71
2023-12-14T03:44:13.313Z,97.60
2023-12-14T03:45:13.245Z,97.19
2023-12-14T03:46:13.244Z,97.29
2023-12-14T03:47:13.373Z,97.60
2023-12-14T03:48:13.360Z,97.71
2023-12-14T03:49:13.266Z,97.19
2023-12-14T03:50:13.356Z,96.78
2023-12-14T03:51:13.277Z,96.26
2023-12-14T03:52:13.311Z,96.05
2023-12-14T03:53:13.255Z,96.57
2023-12-14T03:54:13.277Z,97.09
2023-12-14T03:55:13.253Z,97.29
2023-12-14T03:56:13.186Z,96.67
2023-12-14T03:57:13.143Z,96.57
2023-12-14T03:58:13.151Z,96.78
2023-12-14T03:59:13.158Z,96.88
2023-12-14T04:00:13.125Z,96.78
2023-12-14T04:01:13.188Z,96.61
2023-12-14T04:02:13.112Z,96.61
2023-12-14T04:03:13.125Z,96.72
2023-12-14T04:04:13.082Z,96.92
2023-12-14T04:05:13.185Z,96.82
2023-12-14T04:06:13.111Z,97.13
2023-12-14T04:07:13.075Z,97.34
2023-12-14T04:08:13.058Z,96.72
2023-12-14T04:09:13.051Z,97.34
2023-12-14T04:10:13.033Z,97.80
2023-12-14T04:11:13.054Z,97.69
2023-12-14T04:12:13.010Z,97.90
2023-12-14T04:13:13.003Z,98.42
2023-12-14T04:14:13.000Z,98.21
2023-12-14T04:15:12.990Z,97.69
2023-12-14T04:16:12.960Z,97.69
2023-12-14T04:17:13.028Z,98.21
2023-12-14T04:18:13.039Z,98.73
2023-12-14T04:19:12.934Z,98.83
2023-12-14T04:20:12.978Z,98.63
2023-12-14T04:21:12.918Z,98.58
2023-12-14T04:22:12.893Z,98.17
2023-12-14T04:23:12.955Z,98.27
2023-12-14T04:24:12.879Z,98.17
2023-12-14T04:25:12.891Z,97.86
2023-12-14T04:26:12.888Z,97.55
2023-12-14T04:27:12.854Z,97.39
2023-12-14T04:28:12.862Z,97.19
2023-12-14T04:29:12.860Z,96.78
2023-12-14T04:30:12.892Z,96.20
2023-12-14T04:31:12.823Z,96.41
2023-12-14T04:32:12.889Z,97.34
2023-12-14T04:33:12.874Z,97.24
2023-12-14T04:34:12.878Z,97.24
2023-12-14T04:35:12.883Z,97.65
2023-12-14T04:36:12.770Z,96.72
2023-12-14T04:37:12.766Z,96.92
2023-12-14T04:38:12.870Z,97.65
2023-12-14T04:39:12.758Z,97.86
2023-12-14T04:40:12.735Z,97.55
2023-12-14T04:41:12.751Z,97.65
2023-12-14T04:42:12.709Z,96.82
2023-12-14T04:43:12.735Z,97.34
2023-12-14T04:44:12.769Z,97.44
2023-12-14T04:45:12.699Z,97.17
2023-12-14T04:46:12.705Z,97.17
2023-12-14T04:47:12.764Z,97.65
2023-12-14T04:48:12.777Z,98.27
2023-12-14T04:49:12.761Z,98.07
2023-12-14T04:50:12.672Z,97.65
2023-12-14T04:51:12.654Z,97.44
2023-12-14T04:52:12.629Z,97.75
2023-12-14T04:53:12.699Z,98.17
2023-12-14T04:54:12.610Z,97.75
2023-12-14T04:55:12.663Z,97.86
2023-12-14T04:56:12.845Z,98.07
2023-12-14T04:57:12.602Z,97.65
2023-12-14T04:58:12.594Z,97.71
2023-12-14T04:59:12.619Z,97.50
2023-12-14T05:00:12.579Z,97.39
2023-12-14T05:01:12.611Z,97.29
2023-12-14T05:02:12.576Z,97.50
2023-12-14T05:03:12.561Z,97.29
2023-12-14T05:04:12.568Z,97.50
2023-12-14T05:05:12.548Z,97.50
2023-12-14T05:06:12.605Z,96.36
2023-12-14T05:07:12.504Z,96.05
2023-12-14T05:08:12.540Z,96.78
2023-12-14T05:09:12.491Z,97.29
2023-12-14T05:10:12.472Z,97.29
2023-12-14T05:11:12.530Z,97.09
2023-12-14T05:12:12.466Z,96.78
2023-12-14T05:13:12.477Z,96.15
2023-12-14T05:14:12.582Z,96.26
2023-12-14T05:15:12.440Z,96.57
2023-12-14T05:16:12.432Z,96.98
2023-12-14T05:17:12.489Z,97.09
2023-12-14T05:18:12.459Z,97.09
2023-12-14T05:19:12.431Z,96.67
2023-12-14T05:20:12.440Z,97.19
2023-12-14T05:21:12.422Z,96.78
2023-12-14T05:22:12.373Z,97.09
2023-12-14T05:23:12.399Z,96.88
2023-12-14T05:24:12.355Z,96.67
2023-12-14T05:25:12.348Z,97.29
2023-12-14T05:26:12.366Z,97.19
2023-12-14T05:27:12.320Z,97.09
2023-12-14T05:28:12.324Z,96.88
2023-12-14T05:29:12.392Z,97.14
2023-12-14T05:30:12.313Z,96.62
2023-12-14T05:31:12.282Z,96.11
2023-12-14T05:32:12.358Z,96.31
2023-12-14T05:33:13.290Z,95.59
2023-12-14T05:34:12.282Z,95.84
2023-12-14T05:35:12.277Z,96.57
2023-12-14T05:36:12.396Z,96.67
2023-12-14T05:37:12.234Z,96.57
2023-12-14T05:38:12.238Z,96.78
2023-12-14T05:39:12.235Z,96.47
2023-12-14T05:40:12.195Z,96.78
2023-12-14T05:41:12.304Z,96.98
2023-12-14T05:42:12.183Z,97.09
2023-12-14T05:43:12.201Z,97.19
2023-12-14T05:44:12.271Z,97.60
2023-12-14T05:45:12.946Z,97.91
2023-12-14T05:46:12.172Z,98.12
2023-12-14T05:47:12.242Z,97.91
2023-12-14T05:48:12.273Z,97.39
2023-12-14T05:49:12.184Z,96.88
2023-12-14T05:50:12.186Z,96.88
2023-12-14T05:51:12.124Z,96.57
2023-12-14T05:52:12.093Z,96.78
2023-12-14T05:53:12.147Z,96.05
2023-12-14T05:54:12.087Z,96.67
2023-12-14T05:55:12.091Z,96.30
2023-12-14T05:56:12.124Z,96.78
2023-12-14T05:57:12.053Z,96.61
2023-12-14T05:58:12.057Z,97.34
2023-12-14T05:59:12.121Z,97.91
2023-12-14T06:00:12.049Z,97.96
2023-12-14T06:01:12.203Z,97.65
2023-12-14T06:02:12.185Z,97.29
2023-12-14T06:03:12.027Z,97.44
2023-12-14T06:04:12.070Z,97.86
2023-12-14T06:05:12.101Z,97.91
2023-12-14T06:06:12.004Z,97.71
2023-12-14T06:07:11.964Z,98.02
2023-12-14T06:08:12.075Z,98.22
2023-12-14T06:09:11.953Z,98.22
2023-12-14T06:10:11.984Z,97.50
2023-12-14T06:11:11.970Z,97.09
2023-12-14T06:12:11.924Z,96.98
2023-12-14T06:13:12.030Z,96.57
2023-12-14T06:14:11.960Z,96.36
2023-12-14T06:15:11.938Z,96.67
2023-12-14T06:16:11.884Z,95.95
2023-12-14T06:17:11.924Z,95.84
2023-12-14T06:18:11.933Z,96.51
2023-12-14T06:19:11.980Z,97.24
2023-12-14T06:20:11.956Z,97.71
2023-12-14T06:21:11.874Z,97.91
2023-12-14T06:22:11.890Z,97.71
2023-12-14T06:23:11.867Z,97.60
2023-12-14T06:24:11.881Z,97.60
2023-12-14T06:25:11.807Z,96.98
2023-12-14T06:26:11.879Z,96.36
2023-12-14T06:27:11.817Z,96.05
2023-12-14T06:28:11.835Z,96.15
2023-12-14T06:29:12.152Z,96.47
2023-12-14T06:30:11.830Z,96.57
2023-12-14T06:31:11.796Z,96.62
2023-12-14T06:32:11.901Z,96.31
2023-12-14T06:33:11.865Z,95.70
2023-12-14T06:34:11.813Z,95.90
2023-12-14T06:35:11.781Z,95.90
2023-12-14T06:36:11.744Z,96.21
2023-12-14T06:37:11.817Z,96.21
2023-12-14T06:38:11.821Z,96.11
2023-12-14T06:39:11.686Z,96.01
2023-12-14T06:40:11.714Z,95.70
2023-12-14T06:41:11.768Z,95.70
2023-12-14T06:42:11.671Z,95.59
2023-12-14T06:43:11.703Z,94.56
2023-12-14T06:44:11.723Z,94.97
2023-12-14T06:45:11.625Z,95.49
2023-12-14T06:46:11.709Z,95.28
2023-12-14T06:47:11.724Z,95.28
2023-12-14T06:48:11.826Z,95.49
2023-12-14T06:49:11.654Z,95.70
2023-12-14T06:50:11.648Z,95.70
2023-12-14T06:51:11.584Z,95.70
2023-12-14T06:52:11.580Z,95.18
2023-12-14T06:53:11.614Z,95.18
2023-12-14T06:54:11.536Z,95.39
2023-12-14T06:55:11.616Z,95.28
2023-12-14T06:56:11.553Z,94.87
2023-12-14T06:57:11.584Z,94.14
2023-12-14T06:58:11.545Z,94.45
2023-12-14T06:59:11.587Z,94.97
2023-12-14T07:00:11.486Z,94.45
2023-12-14T07:01:11.597Z,94.66
2023-12-14T07:02:11.483Z,94.97
2023-12-14T07:03:11.502Z,94.66
2023-12-14T07:04:13.251Z,94.35
2023-12-14T07:05:11.551Z,94.35
2023-12-14T07:06:11.558Z,94.56
2023-12-14T07:07:12.146Z,94.87
2023-12-14T07:08:11.507Z,94.76
2023-12-14T07:09:11.481Z,94.76
2023-12-14T07:10:11.407Z,94.56
2023-12-14T07:11:11.557Z,94.87
2023-12-14T07:12:11.457Z,94.97
2023-12-14T07:13:11.398Z,94.97
2023-12-14T07:14:11.407Z,94.66
2023-12-14T07:15:11.468Z,94.66
2023-12-14T07:16:11.378Z,94.35
2023-12-14T07:17:11.376Z,94.24
2023-12-14T07:18:11.408Z,94.45
2023-12-14T07:19:11.408Z,94.87
2023-12-14T07:20:11.348Z,94.97
2023-12-14T07:21:11.345Z,95.18
2023-12-14T07:22:11.385Z,95.28
2023-12-14T07:23:11.376Z,94.72
2023-12-14T07:24:11.352Z,93.62
2023-12-14T07:25:11.316Z,94.35
2023-12-14T07:26:11.326Z,94.45
2023-12-14T07:27:11.264Z,94.24
2023-12-14T07:28:11.370Z,94.35
2023-12-14T07:29:11.272Z,94.66
2023-12-14T07:30:11.283Z,94.10
2023-12-14T07:31:11.240Z,94.20
2023-12-14T07:32:11.300Z,94.51
2023-12-14T07:33:11.296Z,94.62
2023-12-14T07:34:11.305Z,94.76
2023-12-14T07:35:11.289Z,93.99
2023-12-14T07:36:11.169Z,93.79
2023-12-14T07:37:11.230Z,93.62
2023-12-14T07:38:11.245Z,94.24
2023-12-14T07:39:11.163Z,93.73
2023-12-14T07:40:11.161Z,94.24
2023-12-14T07:41:11.244Z,94.45
2023-12-14T07:42:11.179Z,94.45
2023-12-14T07:43:11.173Z,94.76
2023-12-14T07:44:11.190Z,94.04
2023-12-14T07:45:11.110Z,94.14
2023-12-14T07:46:11.121Z,94.66
2023-12-14T07:47:11.130Z,94.87
2023-12-14T07:48:11.147Z,94.97
2023-12-14T07:49:11.157Z,94.45
2023-12-14T07:50:11.100Z,94.56
2023-12-14T07:51:11.078Z,94.45
2023-12-14T07:52:11.100Z,94.31
2023-12-14T07:53:11.137Z,94.14
2023-12-14T07:54:11.945Z,93.93
2023-12-14T07:55:11.027Z,93.73
2023-12-14T07:56:11.048Z,93.52
2023-12-14T07:57:11.038Z,93.93
2023-12-14T07:58:11.021Z,94.24
2023-12-14T07:59:11.106Z,94.45
2023-12-14T08:00:10.974Z,94.35
2023-12-14T08:01:11.044Z,94.56
2023-12-14T08:02:11.033Z,94.45
2023-12-14T08:03:11.044Z,94.35
2023-12-14T08:04:10.985Z,94.24
2023-12-14T08:05:11.083Z,94.04
2023-12-14T08:06:11.704Z,94.04
2023-12-14T08:07:10.939Z,94.10
2023-12-14T08:08:11.025Z,93.99
2023-12-14T08:09:10.952Z,94.10
2023-12-14T08:10:10.897Z,94.20
2023-12-14T08:11:10.979Z,94.10
2023-12-14T08:12:10.926Z,93.58
2023-12-14T08:13:10.856Z,93.48
2023-12-14T08:14:10.981Z,93.58
2023-12-14T08:15:10.828Z,93.89
2023-12-14T08:16:10.836Z,94.31
2023-12-14T08:17:10.870Z,94.41
2023-12-14T08:18:10.954Z,94.10
2023-12-14T08:19:10.978Z,93.27
2023-12-14T08:20:10.891Z,93.16
2023-12-14T08:21:13.022Z,92.65
2023-12-14T08:22:10.813Z,92.03
2023-12-14T08:23:10.911Z,92.76
2023-12-14T08:24:10.792Z,93.48
2023-12-14T08:25:10.827Z,93.48
2023-12-14T08:26:10.789Z,92.44
2023-12-14T08:27:10.749Z,92.96
2023-12-14T08:28:10.738Z,92.85
2023-12-14T08:29:10.754Z,92.65
2023-12-14T08:30:10.752Z,92.96
2023-12-14T08:31:10.744Z,93.16
2023-12-14T08:32:10.743Z,93.06
2023-12-14T08:33:10.774Z,93.37
2023-12-14T08:34:10.717Z,92.76
2023-12-14T08:35:10.700Z,91.82
2023-12-14T08:36:10.633Z,92.44
2023-12-14T08:37:10.622Z,92.76
2023-12-14T08:38:10.680Z,92.03
2023-12-14T08:39:10.596Z,92.03
2023-12-14T08:40:10.699Z,92.18
2023-12-14T08:41:10.652Z,92.65
2023-12-14T08:42:10.568Z,93.21
2023-12-14T08:43:10.569Z,93.16
2023-12-14T08:44:10.661Z,92.96
2023-12-14T08:45:11.873Z,92.85
2023-12-14T08:46:10.554Z,92.96
2023-12-14T08:47:10.589Z,93.48
2023-12-14T08:48:10.617Z,93.68
2023-12-14T08:49:10.532Z,93.27
2023-12-14T08:50:10.589Z,92.44
2023-12-14T08:51:10.496Z,92.44
2023-12-14T08:52:10.475Z,92.96
2023-12-14T08:53:10.709Z,93.37
2023-12-14T08:54:10.479Z,93.27
2023-12-14T08:55:10.443Z,93.16
2023-12-14T08:56:10.459Z,93.23
2023-12-14T08:57:10.433Z,93.23
2023-12-14T08:58:10.460Z,92.81
2023-12-14T08:59:10.995Z,92.71
2023-12-14T09:00:10.424Z,91.99
2023-12-14T09:01:10.473Z,92.09
2023-12-14T09:02:10.472Z,92.30
2023-12-14T09:03:10.741Z,91.67
2023-12-14T09:04:10.494Z,91.88
2023-12-14T09:05:12.141Z,92.09
2023-12-14T09:06:10.385Z,92.30
2023-12-14T09:07:10.327Z,91.88
2023-12-14T09:08:10.423Z,91.67
2023-12-14T09:09:10.308Z,91.78
2023-12-14T09:10:10.316Z,92.09
2023-12-14T09:11:10.415Z,92.09
2023-12-14T09:12:10.291Z,92.09
2023-12-14T09:13:10.290Z,92.50
2023-12-14T09:14:10.291Z,92.61
2023-12-14T09:15:10.264Z,92.57
2023-12-14T09:16:10.262Z,91.84
2023-12-14T09:17:10.277Z,92.05
2023-12-14T09:18:10.305Z,91.94
2023-12-14T09:19:10.301Z,91.74
2023-12-14T09:20:10.258Z,91.78
2023-12-14T09:21:10.200Z,91.63
2023-12-14T09:22:10.199Z,90.80
2023-12-14T09:23:10.207Z,90.64
2023-12-14T09:24:12.685Z,91.36
2023-12-14T09:25:10.169Z,91.57
2023-12-14T09:26:10.312Z,91.57
2023-12-14T09:27:10.452Z,91.99
2023-12-14T09:28:10.174Z,91.47
2023-12-14T09:29:10.453Z,91.67
2023-12-14T09:30:10.152Z,91.67
2023-12-14T09:31:10.225Z,92.09
2023-12-14T09:32:10.202Z,91.16
2023-12-14T09:33:10.490Z,91.36
2023-12-14T09:34:10.150Z,91.47
2023-12-14T09:35:10.195Z,91.36
2023-12-14T09:36:10.123Z,91.47
2023-12-14T09:37:10.070Z,91.99
2023-12-14T09:38:10.131Z,91.78
2023-12-14T09:39:10.040Z,91.74
2023-12-14T09:40:10.047Z,91.53
2023-12-14T09:41:10.040Z,91.01
2023-12-14T09:42:10.025Z,90.84
2023-12-14T09:43:10.028Z,90.84
2023-12-14T09:44:10.065Z,91.16
2023-12-14T09:45:09.984Z,91.26
2023-12-14T09:46:10.002Z,91.36
2023-12-14T09:47:10.057Z,91.36
2023-12-14T09:48:10.041Z,91.47
2023-12-14T09:49:10.001Z,91.99
2023-12-14T09:50:09.970Z,92.19
2023-12-14T09:51:09.910Z,92.30
2023-12-14T09:52:09.921Z,92.19
2023-12-14T09:53:09.935Z,91.67
2023-12-14T09:54:09.891Z,91.47
2023-12-14T09:55:09.892Z,91.36
2023-12-14T09:56:09.947Z,91.67
2023-12-14T09:57:09.856Z,92.09
2023-12-14T09:58:09.881Z,91.78
2023-12-14T09:59:09.921Z,91.05
2023-12-14T10:00:09.851Z,91.05
2023-12-14T10:01:09.843Z,91.47
2023-12-14T10:02:09.931Z,91.57
2023-12-14T10:03:09.889Z,90.84
2023-12-14T10:04:09.808Z,91.05
2023-12-14T10:05:09.873Z,91.36
2023-12-14T10:06:10.073Z,91.88
2023-12-14T10:07:09.839Z,91.67
2023-12-14T10:08:09.844Z,91.88
2023-12-14T10:09:09.743Z,91.82
2023-12-14T10:10:09.735Z,91.82
2023-12-14T10:11:09.831Z,92.19
2023-12-14T10:12:09.782Z,92.30
2023-12-14T10:13:09.706Z,92.30
2023-12-14T10:14:09.797Z,92.50
2023-12-14T10:15:09.713Z,92.71
2023-12-14T10:16:09.682Z,92.09
2023-12-14T10:17:09.673Z,91.05
2023-12-14T10:18:09.773Z,91.26
2023-12-14T10:19:09.744Z,91.05
2023-12-14T10:20:09.670Z,91.26
2023-12-14T10:21:09.617Z,91.26
2023-12-14T10:22:09.616Z,90.74
2023-12-14T10:23:10.007Z,90.64
2023-12-14T10:24:09.615Z,89.92
2023-12-14T10:25:09.588Z,90.53
2023-12-14T10:26:09.606Z,91.16
2023-12-14T10:27:09.598Z,90.95
2023-12-14T10:28:09.973Z,91.36
2023-12-14T10:29:10.573Z,91.47
2023-12-14T10:30:09.697Z,91.57
2023-12-14T10:31:09.680Z,91.88
2023-12-14T10:32:09.866Z,91.57
2023-12-14T10:33:09.969Z,91.53
2023-12-14T10:34:09.540Z,91.67
2023-12-14T10:35:09.673Z,91.63
2023-12-14T10:36:09.522Z,91.53
2023-12-14T10:37:09.589Z,91.63
2023-12-14T10:38:09.587Z,91.11
2023-12-14T10:39:09.591Z,91.22
2023-12-14T10:40:09.500Z,91.11
2023-12-14T10:41:09.506Z,91.11
2023-12-14T10:42:16.764Z,91.11
2023-12-14T10:43:09.820Z,90.60
2023-12-14T10:44:21.829Z,90.80
2023-12-14T10:45:17.231Z,91.01
2023-12-14T10:46:09.491Z,90.08
2023-12-14T10:47:09.656Z,90.45
2023-12-14T10:48:09.790Z,90.35
2023-12-14T10:49:09.763Z,90.04
2023-12-14T10:50:09.423Z,90.25
2023-12-14T10:51:09.552Z,89.52
2023-12-14T10:52:09.421Z,89.50
2023-12-14T10:53:09.452Z,90.44
2023-12-14T10:54:09.653Z,91.16
2023-12-14T10:55:09.318Z,91.78
2023-12-14T10:56:09.390Z,91.78
2023-12-14T10:57:09.395Z,90.84
2023-12-14T10:58:09.299Z,90.70
2023-12-14T10:59:09.331Z,91.11
2023-12-14T11:00:09.344Z,90.80
2023-12-14T11:01:09.239Z,89.98
2023-12-14T11:02:09.337Z,89.87
2023-12-14T11:03:09.329Z,89.77
2023-12-14T11:04:09.321Z,89.56
2023-12-14T11:05:09.302Z,89.87
2023-12-14T11:06:13.329Z,89.87
2023-12-14T11:07:10.040Z,89.98
2023-12-14T11:08:09.310Z,89.15
2023-12-14T11:09:09.396Z,89.25
2023-12-14T11:10:09.526Z,88.32
2023-12-14T11:11:09.139Z,88.74
2023-12-14T11:12:09.166Z,89.04
2023-12-14T11:13:09.296Z,89.25
2023-12-14T11:14:09.244Z,89.46
2023-12-14T11:15:09.122Z,88.94
2023-12-14T11:16:09.092Z,89.25
2023-12-14T11:17:09.137Z,89.46
2023-12-14T11:18:09.320Z,89.52
2023-12-14T11:19:09.107Z,89.22
2023-12-14T11:20:09.812Z,88.90
2023-12-14T11:21:09.978Z,88.70
2023-12-14T11:22:09.872Z,88.28
2023-12-14T11:23:09.552Z,89.11
2023-12-14T11:24:09.034Z,89.42
2023-12-14T11:25:09.015Z,89.32
2023-12-14T11:26:09.117Z,88.49
2023-12-14T11:27:09.069Z,89.11
2023-12-14T11:28:08.987Z,89.73
2023-12-14T11:29:09.240Z,89.22
2023-12-14T11:30:09.043Z,89.01
2023-12-14T11:31:09.265Z,88.70
2023-12-14T11:32:09.683Z,88.28
2023-12-14T11:33:09.354Z,88.70
2023-12-14T11:34:09.012Z,89.22
2023-12-14T11:35:08.914Z,89.11
2023-12-14T11:36:08.924Z,89.11
2023-12-14T11:37:10.726Z,89.22
2023-12-14T11:38:09.520Z,89.01
2023-12-14T11:39:09.183Z,87.87
2023-12-14T11:40:08.929Z,87.35
2023-12-14T11:41:08.921Z,87.83
2023-12-14T11:42:08.934Z,87.83
2023-12-14T11:43:08.880Z,87.62
2023-12-14T11:44:09.103Z,88.04
2023-12-14T11:45:08.801Z,88.55
2023-12-14T11:46:08.826Z,88.76
2023-12-14T11:47:08.836Z,88.76
2023-12-14T11:48:08.994Z,88.86
2023-12-14T11:49:09.102Z,88.24
2023-12-14T11:50:09.831Z,87.62
2023-12-14T11:51:09.044Z,87.73
2023-12-14T11:52:08.796Z,87.93
2023-12-14T11:53:09.174Z,87.83
2023-12-14T11:54:08.812Z,86.79
2023-12-14T11:55:08.747Z,86.07
2023-12-14T11:56:08.815Z,86.79
2023-12-14T11:57:08.771Z,87.31
2023-12-14T11:58:08.751Z,87.62
2023-12-14T11:59:08.748Z,87.10
2023-12-14T12:00:09.518Z,87.31
2023-12-14T12:01:08.806Z,87.62
2023-12-14T12:02:08.890Z,87.83
2023-12-14T12:03:09.011Z,87.73
2023-12-14T12:04:08.662Z,87.73
2023-12-14T12:05:08.732Z,87.62
2023-12-14T12:06:08.705Z,87.00
2023-12-14T12:07:08.685Z,86.90
2023-12-14T12:08:08.687Z,87.10
2023-12-14T12:09:08.592Z,86.90
2023-12-14T12:10:08.607Z,87.10
2023-12-14T12:11:08.604Z,87.31
2023-12-14T12:12:08.582Z,87.31
2023-12-14T12:13:08.585Z,87.37
2023-12-14T12:14:08.540Z,87.37
2023-12-14T12:15:08.597Z,87.52
2023-12-14T12:16:08.670Z,87.52
2023-12-14T12:17:08.628Z,87.41
2023-12-14T12:18:08.597Z,87.27
2023-12-14T12:19:08.521Z,87.17
2023-12-14T12:20:08.531Z,86.90
2023-12-14T12:21:08.501Z,86.03
2023-12-14T12:22:08.703Z,85.97
2023-12-14T12:23:08.524Z,86.69
2023-12-14T12:24:18.530Z,87.46
2023-12-14T12:25:15.204Z,87.66
2023-12-14T12:26:08.489Z,86.83
2023-12-14T12:27:08.525Z,87.46
2023-12-14T12:28:08.405Z,87.15
2023-12-14T12:29:08.422Z,86.73
2023-12-14T12:30:08.371Z,86.32
2023-12-14T12:31:08.458Z,87.25
2023-12-14T12:32:08.494Z,87.87
2023-12-14T12:33:08.520Z,88.18
2023-12-14T12:34:08.371Z,88.28
2023-12-14T12:35:08.426Z,87.66
2023-12-14T12:36:08.357Z,87.97
2023-12-14T12:37:08.341Z,87.56
2023-12-14T12:38:08.416Z,87.56
2023-12-14T12:39:08.357Z,87.66
2023-12-14T12:40:08.307Z,87.83
2023-12-14T12:41:08.383Z,87.76
2023-12-14T12:42:08.288Z,87.66
2023-12-14T12:43:08.276Z,86.90
2023-12-14T12:44:08.278Z,86.79
2023-12-14T12:45:08.648Z,86.52
2023-12-14T12:46:08.256Z,87.25
2023-12-14T12:47:11.362Z,87.56
2023-12-14T12:48:08.467Z,87.87
2023-12-14T12:49:08.381Z,88.18
2023-12-14T12:50:08.313Z,87.10
2023-12-14T12:51:08.211Z,87.56
2023-12-14T12:52:08.170Z,87.93